sensor_id;sensor_type;location;lat;lon;timestamp;pressure;altitude;pressure_sealevel;temperature;humidity
49102;BME280;34913;47.520;19.186;2023-01-19T00:00:14;98276.56;;;4.45;100.00
49102;BME280;34913;47.520;19.186;2023-01-19T00:02:41;98266.44;;;4.40;100.00
49102;BME280;34913;47.520;19.186;2023-01-19T00:05:11;98274.31;;;4.40;100.00
49102;BME280;34913;47.520;19.186;2023-01-19T00:07:37;98278.03;;;4.38;100.00
49102;BME280;34913;47.520;19.186;2023-01-19T00:10:02;98275.88;;;4.43;100.00
49102;BME280;34913;47.520;19.186;2023-01-19T00:12:28;98281.63;;;4.37;100.00
49102;BME280;34913;47.520;19.186;2023-01-19T00:14:53;98278.41;;;4.33;100.00
49102;BME280;34913;47.520;19.186;2023-01-19T00:17:19;98274.44;;;4.39;100.00
49102;BME280;34913;47.520;19.186;2023-01-19T00:19:44;98265.88;;;4.37;100.00
49102;BME280;34913;47.520;19.186;2023-01-19T00:22:10;98282.63;;;4.45;100.00
49102;BME280;34913;47.520;19.186;2023-01-19T00:24:35;98287.31;;;4.42;100.00
49102;BME280;34913;47.520;19.186;2023-01-19T00:27:01;98269.47;;;4.36;100.00
49102;BME280;34913;47.520;19.186;2023-01-19T00:29:28;98273.06;;;4.35;100.00
49102;BME280;34913;47.520;19.186;2023-01-19T00:31:58;98269.19;;;4.39;100.00
49102;BME280;34913;47.520;19.186;2023-01-19T00:34:24;98257.53;;;4.32;100.00
49102;BME280;34913;47.520;19.186;2023-01-19T00:36:50;98264.84;;;4.28;100.00
49102;BME280;34913;47.520;19.186;2023-01-19T00:39:15;98263.47;;;4.34;100.00
49102;BME280;34913;47.520;19.186;2023-01-19T00:41:41;98263.88;;;4.29;100.00
49102;BME280;34913;47.520;19.186;2023-01-19T00:44:25;98269.69;;;4.33;100.00
49102;BME280;34913;47.520;19.186;2023-01-19T00:46:50;98274.41;;;4.29;100.00
49102;BME280;34913;47.520;19.186;2023-01-19T00:49:16;98267.34;;;4.30;100.00
49102;BME280;34913;47.520;19.186;2023-01-19T00:51:41;98265.56;;;4.30;100.00
49102;BME280;34913;47.520;19.186;2023-01-19T00:54:06;98272.19;;;4.34;100.00
49102;BME280;34913;47.520;19.186;2023-01-19T00:56:35;98263.38;;;4.35;100.00
49102;BME280;34913;47.520;19.186;2023-01-19T00:59:01;98259.91;;;4.35;100.00
49102;BME280;34913;47.520;19.186;2023-01-19T01:01:26;98250.75;;;4.29;100.00
49102;BME280;34913;47.520;19.186;2023-01-19T01:03:52;98237.81;;;4.16;100.00
49102;BME280;34913;47.520;19.186;2023-01-19T01:06:21;98245.31;;;4.21;100.00
49102;BME280;34913;47.520;19.186;2023-01-19T01:08:46;98257.50;;;4.22;100.00
49102;BME280;34913;47.520;19.186;2023-01-19T01:11:12;98257.50;;;4.22;100.00
49102;BME280;34913;47.520;19.186;2023-01-19T01:13:37;98258.44;;;4.21;100.00
49102;BME280;34913;47.520;19.186;2023-01-19T01:16:03;98249.75;;;4.20;100.00
49102;BME280;34913;47.520;19.186;2023-01-19T01:18:29;98236.03;;;4.17;100.00
49102;BME280;34913;47.520;19.186;2023-01-19T01:21:05;98232.72;;;4.15;100.00
49102;BME280;34913;47.520;19.186;2023-01-19T01:23:32;98219.84;;;4.12;100.00
49102;BME280;34913;47.520;19.186;2023-01-19T01:25:57;98231.56;;;4.08;100.00
49102;BME280;34913;47.520;19.186;2023-01-19T01:28:23;98227.13;;;4.08;100.00
49102;BME280;34913;47.520;19.186;2023-01-19T01:30:52;98232.25;;;4.10;100.00
49102;BME280;34913;47.520;19.186;2023-01-19T01:33:17;98243.16;;;4.05;100.00
49102;BME280;34913;47.520;19.186;2023-01-19T01:35:43;98244.88;;;4.16;100.00
49102;BME280;34913;47.520;19.186;2023-01-19T01:38:09;98239.75;;;4.14;100.00
49102;BME280;34913;47.520;19.186;2023-01-19T01:40:38;98239.75;;;4.14;100.00
49102;BME280;34913;47.520;19.186;2023-01-19T01:43:05;98231.88;;;4.14;100.00
49102;BME280;34913;47.520;19.186;2023-01-19T01:45:36;98230.22;;;4.13;100.00
49102;BME280;34913;47.520;19.186;2023-01-19T01:48:22;98230.78;;;4.17;100.00
49102;BME280;34913;47.520;19.186;2023-01-19T01:50:57;98232.56;;;4.16;100.00
49102;BME280;34913;47.520;19.186;2023-01-19T01:53:44;98237.97;;;4.15;100.00
49102;BME280;34913;47.520;19.186;2023-01-19T01:56:15;98245.19;;;4.23;100.00
49102;BME280;34913;47.520;19.186;2023-01-19T01:58:42;98246.47;;;4.07;100.00
49102;BME280;34913;47.520;19.186;2023-01-19T02:01:08;98253.25;;;4.10;100.00
49102;BME280;34913;47.520;19.186;2023-01-19T02:04:06;98257.16;;;4.15;100.00
49102;BME280;34913;47.520;19.186;2023-01-19T02:06:33;98271.75;;;4.08;100.00
49102;BME280;34913;47.520;19.186;2023-01-19T02:09:06;98272.41;;;4.01;100.00
49102;BME280;34913;47.520;19.186;2023-01-19T02:11:52;98274.19;;;4.00;100.00
49102;BME280;34913;47.520;19.186;2023-01-19T02:14:37;98267.47;;;3.86;100.00
49102;BME280;34913;47.520;19.186;2023-01-19T02:17:03;98257.03;;;3.75;100.00
49102;BME280;34913;47.520;19.186;2023-01-19T02:19:41;98224.69;;;3.54;100.00
49102;BME280;34913;47.520;19.186;2023-01-19T02:22:30;98215.09;;;3.43;100.00
49102;BME280;34913;47.520;19.186;2023-01-19T02:25:03;98215.22;;;3.42;100.00
49102;BME280;34913;47.520;19.186;2023-01-19T02:27:30;98235.56;;;3.49;100.00
49102;BME280;34913;47.520;19.186;2023-01-19T02:29:56;98261.13;;;3.36;100.00
49102;BME280;34913;47.520;19.186;2023-01-19T02:32:22;98285.06;;;3.43;100.00
49102;BME280;34913;47.520;19.186;2023-01-19T02:34:48;98295.28;;;3.46;100.00
49102;BME280;34913;47.520;19.186;2023-01-19T02:37:14;98299.34;;;3.39;100.00
49102;BME280;34913;47.520;19.186;2023-01-19T02:39:52;98279.59;;;3.34;100.00
49102;BME280;34913;47.520;19.186;2023-01-19T02:42:26;98260.19;;;3.26;100.00
49102;BME280;34913;47.520;19.186;2023-01-19T02:44:55;98244.47;;;3.26;100.00
49102;BME280;34913;47.520;19.186;2023-01-19T02:47:21;98235.56;;;3.17;100.00
49102;BME280;34913;47.520;19.186;2023-01-19T02:49:57;98227.78;;;3.16;100.00
49102;BME280;34913;47.520;19.186;2023-01-19T02:52:23;98235.66;;;3.16;100.00
49102;BME280;34913;47.520;19.186;2023-01-19T03:00:47;98251.16;;;3.07;100.00
49102;BME280;34913;47.520;19.186;2023-01-19T03:07:10;98270.84;;;3.02;100.00
49102;BME280;34913;47.520;19.186;2023-01-19T03:11:40;98273.84;;;2.86;100.00
49102;BME280;34913;47.520;19.186;2023-01-19T03:14:13;98269.09;;;2.80;100.00
49102;BME280;34913;47.520;19.186;2023-01-19T03:16:46;98276.47;;;2.75;100.00
49102;BME280;34913;47.520;19.186;2023-01-19T03:21:46;98296.69;;;2.84;100.00
49102;BME280;34913;47.520;19.186;2023-01-19T03:24:16;98316.59;;;2.75;100.00
49102;BME280;34913;47.520;19.186;2023-01-19T03:26:46;98309.69;;;2.63;100.00
49102;BME280;34913;47.520;19.186;2023-01-19T03:29:14;98296.94;;;2.59;100.00
49102;BME280;34913;47.520;19.186;2023-01-19T03:31:44;98287.53;;;2.67;100.00
49102;BME280;34913;47.520;19.186;2023-01-19T03:34:12;98277.31;;;2.64;100.00
49102;BME280;34913;47.520;19.186;2023-01-19T03:36:43;98248.38;;;2.55;100.00
49102;BME280;34913;47.520;19.186;2023-01-19T03:39:11;98226.00;;;2.62;100.00
49102;BME280;34913;47.520;19.186;2023-01-19T03:41:40;98209.47;;;2.39;100.00
49102;BME280;34913;47.520;19.186;2023-01-19T03:44:07;98227.78;;;2.39;100.00
49102;BME280;34913;47.520;19.186;2023-01-19T03:46:35;98215.16;;;2.44;100.00
49102;BME280;34913;47.520;19.186;2023-01-19T03:49:01;98216.13;;;2.43;100.00
49102;BME280;34913;47.520;19.186;2023-01-19T03:51:26;98220.16;;;2.36;100.00
49102;BME280;34913;47.520;19.186;2023-01-19T03:53:52;98226.94;;;2.27;100.00
49102;BME280;34913;47.520;19.186;2023-01-19T03:56:20;98234.41;;;2.20;100.00
49102;BME280;34913;47.520;19.186;2023-01-19T03:58:47;98249.28;;;2.20;100.00
49102;BME280;34913;47.520;19.186;2023-01-19T04:01:13;98257.75;;;2.23;100.00
49102;BME280;34913;47.520;19.186;2023-01-19T04:03:40;98282.16;;;2.24;100.00
49102;BME280;34913;47.520;19.186;2023-01-19T04:06:06;98280.63;;;2.21;100.00
49102;BME280;34913;47.520;19.186;2023-01-19T04:08:31;98267.03;;;2.28;100.00
49102;BME280;34913;47.520;19.186;2023-01-19T04:10:57;98256.56;;;2.28;100.00
49102;BME280;34913;47.520;19.186;2023-01-19T04:13:22;98258.22;;;2.29;100.00
49102;BME280;34913;47.520;19.186;2023-01-19T04:15:48;98262.63;;;2.28;100.00
49102;BME280;34913;47.520;19.186;2023-01-19T04:18:13;98244.06;;;2.20;100.00
49102;BME280;34913;47.520;19.186;2023-01-19T04:20:39;98248.72;;;2.16;100.00
49102;BME280;34913;47.520;19.186;2023-01-19T04:23:05;98251.31;;;2.28;100.00
49102;BME280;34913;47.520;19.186;2023-01-19T04:25:30;98245.03;;;2.30;100.00
49102;BME280;34913;47.520;19.186;2023-01-19T04:27:55;98253.22;;;2.37;100.00
49102;BME280;34913;47.520;19.186;2023-01-19T04:30:24;98261.69;;;2.40;100.00
49102;BME280;34913;47.520;19.186;2023-01-19T04:32:50;98259.69;;;2.55;100.00
49102;BME280;34913;47.520;19.186;2023-01-19T04:35:16;98264.56;;;2.48;100.00
49102;BME280;34913;47.520;19.186;2023-01-19T04:37:41;98279.56;;;2.46;100.00
49102;BME280;34913;47.520;19.186;2023-01-19T04:40:09;98268.13;;;2.36;100.00
49102;BME280;34913;47.520;19.186;2023-01-19T04:42:35;98253.25;;;2.26;100.00
49102;BME280;34913;47.520;19.186;2023-01-19T04:45:00;98261.34;;;2.22;100.00
49102;BME280;34913;47.520;19.186;2023-01-19T04:47:26;98248.22;;;2.11;100.00
49102;BME280;34913;47.520;19.186;2023-01-19T04:49:51;98246.53;;;1.99;100.00
49102;BME280;34913;47.520;19.186;2023-01-19T04:52:17;98247.63;;;2.08;100.00
49102;BME280;34913;47.520;19.186;2023-01-19T04:54:42;98228.09;;;2.01;100.00
49102;BME280;34913;47.520;19.186;2023-01-19T04:57:08;98240.34;;;2.00;100.00
49102;BME280;34913;47.520;19.186;2023-01-19T04:59:33;98242.75;;;2.14;100.00
49102;BME280;34913;47.520;19.186;2023-01-19T05:01:58;98250.72;;;2.13;100.00
49102;BME280;34913;47.520;19.186;2023-01-19T05:04:25;98272.63;;;2.23;100.00
49102;BME280;34913;47.520;19.186;2023-01-19T05:06:51;98263.13;;;2.22;100.00
49102;BME280;34913;47.520;19.186;2023-01-19T05:09:18;98276.59;;;2.40;100.00
49102;BME280;34913;47.520;19.186;2023-01-19T05:11:43;98267.75;;;2.18;100.00
49102;BME280;34913;47.520;19.186;2023-01-19T05:14:09;98261.44;;;2.21;100.00
49102;BME280;34913;47.520;19.186;2023-01-19T05:16:35;98253.94;;;2.28;100.00
49102;BME280;34913;47.520;19.186;2023-01-19T05:19:00;98268.13;;;2.36;100.00
49102;BME280;34913;47.520;19.186;2023-01-19T05:21:25;98285.59;;;2.36;100.00
49102;BME280;34913;47.520;19.186;2023-01-19T05:23:51;98302.88;;;2.38;100.00
49102;BME280;34913;47.520;19.186;2023-01-19T05:26:16;98304.44;;;2.52;100.00
49102;BME280;34913;47.520;19.186;2023-01-19T05:28:42;98309.91;;;2.49;100.00
49102;BME280;34913;47.520;19.186;2023-01-19T05:31:07;98322.03;;;2.39;100.00
49102;BME280;34913;47.520;19.186;2023-01-19T05:33:33;98315.59;;;2.43;100.00
49102;BME280;34913;47.520;19.186;2023-01-19T05:35:58;98320.63;;;2.46;100.00
49102;BME280;34913;47.520;19.186;2023-01-19T05:38:24;98323.47;;;2.43;100.00
49102;BME280;34913;47.520;19.186;2023-01-19T05:40:55;98321.34;;;2.48;100.00
49102;BME280;34913;47.520;19.186;2023-01-19T05:43:21;98316.94;;;2.37;100.00
49102;BME280;34913;47.520;19.186;2023-01-19T05:45:49;98308.47;;;2.34;100.00
49102;BME280;34913;47.520;19.186;2023-01-19T05:48:15;98292.41;;;2.38;100.00
49102;BME280;34913;47.520;19.186;2023-01-19T05:50:40;98285.25;;;2.29;100.00
49102;BME280;34913;47.520;19.186;2023-01-19T05:53:05;98285.38;;;2.39;100.00
49102;BME280;34913;47.520;19.186;2023-01-19T05:55:31;98283.09;;;2.34;100.00
49102;BME280;34913;47.520;19.186;2023-01-19T05:57:56;98279.31;;;2.38;100.00
49102;BME280;34913;47.520;19.186;2023-01-19T06:00:22;98267.44;;;2.45;100.00
49102;BME280;34913;47.520;19.186;2023-01-19T06:02:48;98249.44;;;2.52;100.00
49102;BME280;34913;47.520;19.186;2023-01-19T06:05:14;98261.69;;;2.51;100.00
49102;BME280;34913;47.520;19.186;2023-01-19T06:07:40;98278.25;;;2.63;100.00
49102;BME280;34913;47.520;19.186;2023-01-19T06:10:06;98297.91;;;2.58;100.00
49102;BME280;34913;47.520;19.186;2023-01-19T06:12:32;98294.19;;;2.60;100.00
49102;BME280;34913;47.520;19.186;2023-01-19T06:14:57;98272.53;;;2.58;100.00
49102;BME280;34913;47.520;19.186;2023-01-19T06:17:23;98259.06;;;2.51;100.00
49102;BME280;34913;47.520;19.186;2023-01-19T06:19:48;98264.44;;;2.50;100.00
49102;BME280;34913;47.520;19.186;2023-01-19T06:22:14;98286.00;;;2.54;100.00
49102;BME280;34913;47.520;19.186;2023-01-19T06:24:39;98273.84;;;2.52;100.00
49102;BME280;34913;47.520;19.186;2023-01-19T06:27:05;98260.16;;;2.49;100.00
49102;BME280;34913;47.520;19.186;2023-01-19T06:29:31;98263.25;;;2.54;100.00
49102;BME280;34913;47.520;19.186;2023-01-19T06:31:56;98268.38;;;2.56;100.00
49102;BME280;34913;47.520;19.186;2023-01-19T06:34:22;98257.53;;;2.49;100.00
49102;BME280;34913;47.520;19.186;2023-01-19T06:36:51;98264.06;;;2.43;100.00
49102;BME280;34913;47.520;19.186;2023-01-19T06:39:16;98272.75;;;2.44;100.00
49102;BME280;34913;47.520;19.186;2023-01-19T06:41:42;98289.09;;;2.47;100.00
49102;BME280;34913;47.520;19.186;2023-01-19T06:44:07;98290.41;;;2.53;100.00
49102;BME280;34913;47.520;19.186;2023-01-19T06:46:33;98295.06;;;2.61;100.00
49102;BME280;34913;47.520;19.186;2023-01-19T06:49:00;98301.59;;;2.66;100.00
49102;BME280;34913;47.520;19.186;2023-01-19T06:51:25;98305.66;;;2.70;100.00
49102;BME280;34913;47.520;19.186;2023-01-19T06:53:51;98309.56;;;2.76;100.00
49102;BME280;34913;47.520;19.186;2023-01-19T06:56:16;98304.69;;;2.83;100.00
49102;BME280;34913;47.520;19.186;2023-01-19T06:58:42;98302.44;;;2.78;100.00
49102;BME280;34913;47.520;19.186;2023-01-19T07:01:08;98294.78;;;2.75;100.00
49102;BME280;34913;47.520;19.186;2023-01-19T07:03:34;98299.22;;;2.86;100.00
49102;BME280;34913;47.520;19.186;2023-01-19T07:06:01;98291.47;;;2.84;100.00
49102;BME280;34913;47.520;19.186;2023-01-19T07:08:27;98286.13;;;2.86;100.00
49102;BME280;34913;47.520;19.186;2023-01-19T07:10:58;98287.63;;;2.99;100.00
49102;BME280;34913;47.520;19.186;2023-01-19T07:13:25;98289.06;;;3.03;100.00
49102;BME280;34913;47.520;19.186;2023-01-19T07:15:50;98293.72;;;3.11;100.00
49102;BME280;34913;47.520;19.186;2023-01-19T07:18:15;98292.88;;;3.11;100.00
49102;BME280;34913;47.520;19.186;2023-01-19T07:20:41;98298.25;;;2.98;100.00
49102;BME280;34913;47.520;19.186;2023-01-19T07:23:09;98290.63;;;2.95;100.00
49102;BME280;34913;47.520;19.186;2023-01-19T07:25:34;98295.75;;;2.96;100.00
49102;BME280;34913;47.520;19.186;2023-01-19T07:28:00;98302.88;;;3.05;100.00
49102;BME280;34913;47.520;19.186;2023-01-19T07:30:26;98304.06;;;3.13;100.00
49102;BME280;34913;47.520;19.186;2023-01-19T07:32:56;98309.91;;;3.16;100.00
49102;BME280;34913;47.520;19.186;2023-01-19T07:35:24;98325.28;;;3.10;100.00
49102;BME280;34913;47.520;19.186;2023-01-19T07:37:50;98318.84;;;3.14;100.00
49102;BME280;34913;47.520;19.186;2023-01-19T07:40:15;98322.66;;;3.21;100.00
49102;BME280;34913;47.520;19.186;2023-01-19T07:42:47;98306.91;;;3.21;100.00
49102;BME280;34913;47.520;19.186;2023-01-19T07:45:15;98301.09;;;3.17;100.00
49102;BME280;34913;47.520;19.186;2023-01-19T07:47:45;98305.38;;;3.18;100.00
49102;BME280;34913;47.520;19.186;2023-01-19T07:50:13;98313.13;;;3.20;100.00
49102;BME280;34913;47.520;19.186;2023-01-19T07:52:40;98321.06;;;3.29;100.00
49102;BME280;34913;47.520;19.186;2023-01-19T07:55:06;98334.19;;;3.29;100.00
49102;BME280;34913;47.520;19.186;2023-01-19T07:57:32;98343.00;;;3.28;100.00
49102;BME280;34913;47.520;19.186;2023-01-19T07:59:58;98334.66;;;3.34;100.00
49102;BME280;34913;47.520;19.186;2023-01-19T08:02:23;98325.13;;;3.33;100.00
49102;BME280;34913;47.520;19.186;2023-01-19T08:04:49;98319.03;;;3.44;100.00
49102;BME280;34913;47.520;19.186;2023-01-19T08:07:15;98319.63;;;3.48;100.00
49102;BME280;34913;47.520;19.186;2023-01-19T08:09:40;98319.31;;;3.62;100.00
49102;BME280;34913;47.520;19.186;2023-01-19T08:12:06;98316.34;;;3.55;100.00
49102;BME280;34913;47.520;19.186;2023-01-19T08:14:31;98311.16;;;3.44;100.00
49102;BME280;34913;47.520;19.186;2023-01-19T08:17:00;98317.44;;;3.53;100.00
49102;BME280;34913;47.520;19.186;2023-01-19T08:19:27;98314.13;;;3.51;100.00
49102;BME280;34913;47.520;19.186;2023-01-19T08:21:53;98319.25;;;3.52;100.00
49102;BME280;34913;47.520;19.186;2023-01-19T08:24:20;98314.13;;;3.51;100.00
49102;BME280;34913;47.520;19.186;2023-01-19T08:26:47;98306.25;;;3.51;100.00
49102;BME280;34913;47.520;19.186;2023-01-19T08:29:13;98315.09;;;3.50;100.00
49102;BME280;34913;47.520;19.186;2023-01-19T08:31:38;98327.44;;;3.59;100.00
49102;BME280;34913;47.520;19.186;2023-01-19T08:34:04;98330.06;;;3.59;100.00
49102;BME280;34913;47.520;19.186;2023-01-19T08:36:30;98335.44;;;3.57;100.00
49102;BME280;34913;47.520;19.186;2023-01-19T08:38:55;98324.22;;;3.55;100.00
49102;BME280;34913;47.520;19.186;2023-01-19T08:41:21;98324.81;;;3.59;100.00
49102;BME280;34913;47.520;19.186;2023-01-19T08:43:47;98328.50;;;3.68;100.00
49102;BME280;34913;47.520;19.186;2023-01-19T08:46:12;98322.50;;;3.77;100.00
49102;BME280;34913;47.520;19.186;2023-01-19T08:48:42;98328.56;;;3.77;100.00
49102;BME280;34913;47.520;19.186;2023-01-19T08:51:11;98332.38;;;3.84;100.00
49102;BME280;34913;47.520;19.186;2023-01-19T08:53:37;98327.13;;;3.84;100.00
49102;BME280;34913;47.520;19.186;2023-01-19T08:56:03;98334.25;;;3.93;100.00
49102;BME280;34913;47.520;19.186;2023-01-19T08:58:28;98334.44;;;3.81;100.00
49102;BME280;34913;47.520;19.186;2023-01-19T09:00:54;98339.28;;;3.85;100.00
49102;BME280;34913;47.520;19.186;2023-01-19T09:03:20;98335.34;;;3.91;100.00
49102;BME280;34913;47.520;19.186;2023-01-19T09:05:49;98328.56;;;3.88;100.00
49102;BME280;34913;47.520;19.186;2023-01-19T09:08:14;98325.47;;;3.83;100.00
49102;BME280;34913;47.520;19.186;2023-01-19T09:10:45;98322.84;;;3.83;100.00
49102;BME280;34913;47.520;19.186;2023-01-19T09:13:11;98312.47;;;3.82;100.00
49102;BME280;34913;47.520;19.186;2023-01-19T09:15:38;98312.34;;;3.83;100.00
49102;BME280;34913;47.520;19.186;2023-01-19T09:18:06;98316.19;;;3.79;100.00
49102;BME280;34913;47.520;19.186;2023-01-19T09:20:32;98326.41;;;3.82;100.00
49102;BME280;34913;47.520;19.186;2023-01-19T09:23:00;98317.09;;;3.89;100.00
49102;BME280;34913;47.520;19.186;2023-01-19T09:25:25;98326.38;;;3.93;100.00
49102;BME280;34913;47.520;19.186;2023-01-19T09:27:51;98321.94;;;3.94;100.00
49102;BME280;34913;47.520;19.186;2023-01-19T09:30:17;98313.25;;;3.93;100.00
49102;BME280;34913;47.520;19.186;2023-01-19T09:32:43;98320.41;;;3.91;100.00
49102;BME280;34913;47.520;19.186;2023-01-19T09:35:09;98314.66;;;3.98;100.00
49102;BME280;34913;47.520;19.186;2023-01-19T09:37:34;98314.53;;;3.99;100.00
49102;BME280;34913;47.520;19.186;2023-01-19T09:40:00;98321.66;;;4.08;100.00
49102;BME280;34913;47.520;19.186;2023-01-19T09:44:54;98321.91;;;4.05;100.00
49102;BME280;34913;47.520;19.186;2023-01-19T09:47:23;98326.41;;;4.14;100.00
49102;BME280;34913;47.520;19.186;2023-01-19T09:49:57;98327.78;;;4.18;100.00
49102;BME280;34913;47.520;19.186;2023-01-19T09:52:25;98317.28;;;4.18;100.00
49102;BME280;34913;47.520;19.186;2023-01-19T09:54:54;98314.16;;;4.25;100.00
49102;BME280;34913;47.520;19.186;2023-01-19T09:57:21;98321.59;;;4.19;100.00
49102;BME280;34913;47.520;19.186;2023-01-19T09:59:48;98313.47;;;4.23;100.00
49102;BME280;34913;47.520;19.186;2023-01-19T10:02:29;98323.31;;;4.30;100.00
49102;BME280;34913;47.520;19.186;2023-01-19T10:05:06;98321.84;;;4.16;100.00
49102;BME280;34913;47.520;19.186;2023-01-19T10:10:34;98334.16;;;4.16;100.00
49102;BME280;34913;47.520;19.186;2023-01-19T10:15:50;98346.84;;;4.32;100.00
49102;BME280;34913;47.520;19.186;2023-01-19T10:20:49;98338.56;;;4.15;100.00
49102;BME280;34913;47.520;19.186;2023-01-19T10:26:19;98337.38;;;4.19;100.00
49102;BME280;34913;47.520;19.186;2023-01-19T10:28:47;98337.38;;;4.19;100.00
49102;BME280;34913;47.520;19.186;2023-01-19T10:31:17;98341.66;;;4.20;100.00
49102;BME280;34913;47.520;19.186;2023-01-19T10:33:43;98330.00;;;4.13;100.00
49102;BME280;34913;47.520;19.186;2023-01-19T10:36:16;98342.34;;;4.23;100.00
49102;BME280;34913;47.520;19.186;2023-01-19T10:38:42;98341.94;;;4.06;100.00
49102;BME280;34913;47.520;19.186;2023-01-19T10:41:20;98350.72;;;4.16;100.00
49102;BME280;34913;47.520;19.186;2023-01-19T10:43:58;98338.06;;;4.22;100.00
49102;BME280;34913;47.520;19.186;2023-01-19T10:46:42;98354.91;;;4.19;100.00
49102;BME280;34913;47.520;19.186;2023-01-19T10:51:53;98354.75;;;4.00;100.00
49102;BME280;34913;47.520;19.186;2023-01-19T10:54:20;98358.34;;;3.99;100.00
49102;BME280;34913;47.520;19.186;2023-01-19T10:56:56;98350.00;;;3.93;100.00
49102;BME280;34913;47.520;19.186;2023-01-19T10:59:37;98351.34;;;3.88;100.00
49102;BME280;34913;47.520;19.186;2023-01-19T11:02:18;98359.63;;;4.04;100.00
49102;BME280;34913;47.520;19.186;2023-01-19T11:04:45;98348.03;;;4.07;100.00
49102;BME280;34913;47.520;19.186;2023-01-19T11:07:42;98352.25;;;3.98;100.00
49102;BME280;34913;47.520;19.186;2023-01-19T11:12:44;98341.91;;;3.85;100.00
49102;BME280;34913;47.520;19.186;2023-01-19T11:15:14;98351.22;;;3.78;100.00
49102;BME280;34913;47.520;19.186;2023-01-19T11:17:44;98362.13;;;3.74;100.00
49102;BME280;34913;47.520;19.186;2023-01-19T11:20:27;98359.72;;;3.82;100.00
49102;BME280;34913;47.520;19.186;2023-01-19T11:23:19;98352.13;;;3.68;100.00
49102;BME280;34913;47.520;19.186;2023-01-19T11:25:49;98351.03;;;3.70;100.00
49102;BME280;34913;47.520;19.186;2023-01-19T11:36:31;98377.06;;;3.51;100.00
49102;BME280;34913;47.520;19.186;2023-01-19T11:41:38;98375.44;;;3.27;100.00
49102;BME280;34913;47.520;19.186;2023-01-19T11:44:20;98374.56;;;3.38;100.00
49102;BME280;34913;47.520;19.186;2023-01-19T11:46:48;98377.69;;;3.43;100.00
49102;BME280;34913;47.520;19.186;2023-01-19T11:49:26;98389.13;;;3.42;100.00
49102;BME280;34913;47.520;19.186;2023-01-19T11:54:42;98389.97;;;3.43;100.00
49102;BME280;34913;47.520;19.186;2023-01-19T11:57:13;98381.84;;;3.57;100.00
49102;BME280;34913;47.520;19.186;2023-01-19T11:59:40;98376.94;;;3.63;100.00
49102;BME280;34913;47.520;19.186;2023-01-19T12:02:26;98387.66;;;3.60;100.00
49102;BME280;34913;47.520;19.186;2023-01-19T12:04:59;98402.09;;;3.66;100.00
49102;BME280;34913;47.520;19.186;2023-01-19T12:07:31;98399.59;;;3.64;100.00
49102;BME280;34913;47.520;19.186;2023-01-19T12:10:19;98403.75;;;3.67;100.00
49102;BME280;34913;47.520;19.186;2023-01-19T12:12:46;98405.28;;;3.70;100.00
49102;BME280;34913;47.520;19.186;2023-01-19T12:15:25;98402.91;;;3.67;100.00
49102;BME280;34913;47.520;19.186;2023-01-19T12:17:57;98415.78;;;3.70;100.00
49102;BME280;34913;47.520;19.186;2023-01-19T12:20:36;98414.72;;;3.72;100.00
49102;BME280;34913;47.520;19.186;2023-01-19T12:28:47;98416.41;;;3.40;100.00
49102;BME280;34913;47.520;19.186;2023-01-19T12:31:18;98414.63;;;3.51;100.00
49102;BME280;34913;47.520;19.186;2023-01-19T12:33:44;98424.03;;;3.54;100.00
49102;BME280;34913;47.520;19.186;2023-01-19T12:41:35;98434.06;;;3.60;100.00
49102;BME280;34913;47.520;19.186;2023-01-19T12:46:45;98437.31;;;3.41;100.00
49102;BME280;34913;47.520;19.186;2023-01-19T12:49:38;98443.97;;;3.45;100.00
49102;BME280;34913;47.520;19.186;2023-01-19T12:52:27;98449.31;;;3.44;100.00
49102;BME280;34913;47.520;19.186;2023-01-19T13:15:54;98490.81;;;3.61;100.00
49102;BME280;34913;47.520;19.186;2023-01-19T13:18:29;98505.34;;;3.54;100.00
49102;BME280;34913;47.520;19.186;2023-01-19T13:21:00;98509.56;;;3.56;100.00
49102;BME280;34913;47.520;19.186;2023-01-19T13:26:16;98518.97;;;3.48;100.00
49102;BME280;34913;47.520;19.186;2023-01-19T13:28:54;98527.66;;;3.59;100.00
49102;BME280;34913;47.520;19.186;2023-01-19T13:31:22;98527.78;;;3.58;100.00
49102;BME280;34913;47.520;19.186;2023-01-19T13:33:51;98530.03;;;3.51;100.00
49102;BME280;34913;47.520;19.186;2023-01-19T13:38:44;98536.00;;;3.53;100.00
49102;BME280;34913;47.520;19.186;2023-01-19T13:41:14;98547.09;;;3.57;100.00
49102;BME280;34913;47.520;19.186;2023-01-19T13:43:41;98549.72;;;3.57;100.00
49102;BME280;34913;47.520;19.186;2023-01-19T13:46:10;98550.31;;;3.60;100.00
49102;BME280;34913;47.520;19.186;2023-01-19T13:48:37;98554.03;;;3.58;100.00
49102;BME280;34913;47.520;19.186;2023-01-19T13:51:05;98559.59;;;3.42;100.00
49102;BME280;34913;47.520;19.186;2023-01-19T13:53:31;98565.56;;;3.44;100.00
49102;BME280;34913;47.520;19.186;2023-01-19T13:58:38;98565.44;;;3.34;100.00
49102;BME280;34913;47.520;19.186;2023-01-19T14:01:04;98566.38;;;3.33;100.00
49102;BME280;34913;47.520;19.186;2023-01-19T14:03:29;98573.41;;;3.33;100.00
49102;BME280;34913;47.520;19.186;2023-01-19T14:05:55;98584.63;;;3.35;100.00
49102;BME280;34913;47.520;19.186;2023-01-19T14:08:21;98581.75;;;3.27;100.00
49102;BME280;34913;47.520;19.186;2023-01-19T14:15:56;98594.47;;;3.20;100.00
49102;BME280;34913;47.520;19.186;2023-01-19T14:18:33;98584.88;;;3.08;100.00
49102;BME280;34913;47.520;19.186;2023-01-19T14:21:07;98572.72;;;2.96;100.00
49102;BME280;34913;47.520;19.186;2023-01-19T14:23:48;98575.47;;;3.05;100.00
49102;BME280;34913;47.520;19.186;2023-01-19T14:26:39;98565.44;;;2.99;100.00
49102;BME280;34913;47.520;19.186;2023-01-19T14:29:25;98559.16;;;3.02;100.00
49102;BME280;34913;47.520;19.186;2023-01-19T14:34:38;98578.78;;;2.96;100.00